CYFR

Fort Resolution Airport

Fort Resolution, Northwest Territories, Canada
METAR CYFR 152300Z 03004KT 4SM -SN OVC020 M11/M12 A2946 RMK SC8 /S02/ /1.0/45/ SNW CVR/MUCH LOOSE LAST STFD OBS/NEXT181500Z SLP991
Observed Flight Rules
Dec-15 @ 23:00 UTC (16 hours ago) Marginal Visual Flight Rules
Wind Visibility Clouds Conditions
30° at 4 knots 4 miles
  • Overcast at 2,000' AGL
  • Light Snow
Temperatures Readings
Current -11°C / 12°F
Dewpoint -12°C / 10°F
Humidity 92%
Altimeter 29.46" Hg
Pressure 999.1 hPa
Elevation 164
METAR CYFR 152300Z 03004KT 4SM -SN OVC020 M11/M12 A2946 RMK SC8 /S02/ /1.0/45/ SNW CVR/MUCH LOOSE LAST STFD OBS/NEXT181500Z SLP991
Observed Flight Rules
Dec-15 @ 23:00 UTC
(16 hours ago)
MVFR
Wind Visibility
30° at 4 knots 4 miles
Clouds
  • Overcast at 2,000' AGL
Conditions
  • Light Snow
Temperature Dewpoint
-11°C / 12°F -12°C / 10°F
Humidity Altimeter Pressure
92% 29.46" Hg 999.1 hPa